sensor_id;sensor_type;location;lat;lon;timestamp;temperature;humidity
22081;DHT22;11207;59.512;18.050;2023-04-24T00:00:56;6.70;99.90
22081;DHT22;11207;59.512;18.050;2023-04-24T00:03:23;6.70;99.90
22081;DHT22;11207;59.512;18.050;2023-04-24T00:05:49;6.70;99.90
22081;DHT22;11207;59.512;18.050;2023-04-24T00:08:16;6.70;99.90
22081;DHT22;11207;59.512;18.050;2023-04-24T00:10:42;6.60;99.90
22081;DHT22;11207;59.512;18.050;2023-04-24T00:13:08;6.50;99.90
22081;DHT22;11207;59.512;18.050;2023-04-24T00:15:33;6.50;99.90
22081;DHT22;11207;59.512;18.050;2023-04-24T00:17:59;6.30;99.90
22081;DHT22;11207;59.512;18.050;2023-04-24T00:20:27;6.30;99.90
22081;DHT22;11207;59.512;18.050;2023-04-24T00:22:54;6.40;99.90
22081;DHT22;11207;59.512;18.050;2023-04-24T00:25:20;6.30;99.90
22081;DHT22;11207;59.512;18.050;2023-04-24T00:27:46;6.30;99.90
22081;DHT22;11207;59.512;18.050;2023-04-24T00:30:12;6.40;99.90
22081;DHT22;11207;59.512;18.050;2023-04-24T00:32:37;6.40;99.90
22081;DHT22;11207;59.512;18.050;2023-04-24T00:35:03;6.30;99.90
22081;DHT22;11207;59.512;18.050;2023-04-24T00:37:29;6.20;99.90
22081;DHT22;11207;59.512;18.050;2023-04-24T00:39:55;6.20;99.90
22081;DHT22;11207;59.512;18.050;2023-04-24T00:42:20;6.20;99.90
22081;DHT22;11207;59.512;18.050;2023-04-24T00:44:46;6.20;99.90
22081;DHT22;11207;59.512;18.050;2023-04-24T00:47:12;6.10;99.90
22081;DHT22;11207;59.512;18.050;2023-04-24T00:49:38;6.10;99.90
22081;DHT22;11207;59.512;18.050;2023-04-24T00:52:04;6.10;99.90
22081;DHT22;11207;59.512;18.050;2023-04-24T00:54:33;6.00;99.90
22081;DHT22;11207;59.512;18.050;2023-04-24T00:56:58;6.00;99.90
22081;DHT22;11207;59.512;18.050;2023-04-24T00:59:24;6.10;99.90
22081;DHT22;11207;59.512;18.050;2023-04-24T01:01:50;6.00;99.90
22081;DHT22;11207;59.512;18.050;2023-04-24T01:04:17;6.00;99.90
22081;DHT22;11207;59.512;18.050;2023-04-24T01:06:44;6.00;99.90
22081;DHT22;11207;59.512;18.050;2023-04-24T01:09:11;6.00;99.90
22081;DHT22;11207;59.512;18.050;2023-04-24T01:11:37;6.00;99.90
22081;DHT22;11207;59.512;18.050;2023-04-24T01:14:03;6.00;99.90
22081;DHT22;11207;59.512;18.050;2023-04-24T01:16:29;6.00;99.90
22081;DHT22;11207;59.512;18.050;2023-04-24T01:18:54;6.00;99.90
22081;DHT22;11207;59.512;18.050;2023-04-24T01:21:21;5.90;99.90
22081;DHT22;11207;59.512;18.050;2023-04-24T01:23:47;5.90;99.90
22081;DHT22;11207;59.512;18.050;2023-04-24T01:26:16;5.90;99.90
22081;DHT22;11207;59.512;18.050;2023-04-24T01:28:42;5.90;99.90
22081;DHT22;11207;59.512;18.050;2023-04-24T01:31:07;5.90;99.90
22081;DHT22;11207;59.512;18.050;2023-04-24T01:33:33;5.90;99.90
22081;DHT22;11207;59.512;18.050;2023-04-24T01:35:59;5.80;99.90
22081;DHT22;11207;59.512;18.050;2023-04-24T01:38:25;5.90;99.90
22081;DHT22;11207;59.512;18.050;2023-04-24T01:40:51;5.80;99.90
22081;DHT22;11207;59.512;18.050;2023-04-24T01:43:17;5.80;99.90
22081;DHT22;11207;59.512;18.050;2023-04-24T01:45:43;5.80;99.90
22081;DHT22;11207;59.512;18.050;2023-04-24T01:48:09;5.80;99.90
22081;DHT22;11207;59.512;18.050;2023-04-24T01:50:34;5.70;99.90
22081;DHT22;11207;59.512;18.050;2023-04-24T01:53:00;5.80;99.90
22081;DHT22;11207;59.512;18.050;2023-04-24T01:55:26;5.70;99.90
22081;DHT22;11207;59.512;18.050;2023-04-24T01:57:55;5.70;99.90
22081;DHT22;11207;59.512;18.050;2023-04-24T02:00:21;5.70;99.90
22081;DHT22;11207;59.512;18.050;2023-04-24T02:02:46;5.70;99.90
22081;DHT22;11207;59.512;18.050;2023-04-24T02:05:12;5.70;99.90
22081;DHT22;11207;59.512;18.050;2023-04-24T02:07:37;5.70;99.90
22081;DHT22;11207;59.512;18.050;2023-04-24T02:10:03;5.60;99.90
22081;DHT22;11207;59.512;18.050;2023-04-24T02:12:30;5.60;99.90
22081;DHT22;11207;59.512;18.050;2023-04-24T02:14:56;5.60;99.90
22081;DHT22;11207;59.512;18.050;2023-04-24T02:17:21;5.50;99.90
22081;DHT22;11207;59.512;18.050;2023-04-24T02:19:48;5.50;99.90
22081;DHT22;11207;59.512;18.050;2023-04-24T02:22:14;5.50;99.90
22081;DHT22;11207;59.512;18.050;2023-04-24T02:24:39;5.50;99.90
22081;DHT22;11207;59.512;18.050;2023-04-24T02:27:05;5.40;99.90
22081;DHT22;11207;59.512;18.050;2023-04-24T02:29:31;5.50;99.90
22081;DHT22;11207;59.512;18.050;2023-04-24T02:31:57;5.60;99.90
22081;DHT22;11207;59.512;18.050;2023-04-24T02:34:23;5.50;99.90
22081;DHT22;11207;59.512;18.050;2023-04-24T02:36:48;5.40;99.90
22081;DHT22;11207;59.512;18.050;2023-04-24T02:39:14;5.40;99.90
22081;DHT22;11207;59.512;18.050;2023-04-24T02:41:42;5.40;99.90
22081;DHT22;11207;59.512;18.050;2023-04-24T02:44:08;5.50;99.90
22081;DHT22;11207;59.512;18.050;2023-04-24T02:46:34;5.40;99.90
22081;DHT22;11207;59.512;18.050;2023-04-24T02:48:59;5.30;99.90
22081;DHT22;11207;59.512;18.050;2023-04-24T02:51:25;5.30;99.90
22081;DHT22;11207;59.512;18.050;2023-04-24T02:53:50;5.30;99.90
22081;DHT22;11207;59.512;18.050;2023-04-24T02:56:16;5.30;99.90
22081;DHT22;11207;59.512;18.050;2023-04-24T02:58:41;5.20;99.90
22081;DHT22;11207;59.512;18.050;2023-04-24T03:01:07;5.30;99.90
22081;DHT22;11207;59.512;18.050;2023-04-24T03:03:35;5.20;99.90
22081;DHT22;11207;59.512;18.050;2023-04-24T03:06:01;5.10;99.90
22081;DHT22;11207;59.512;18.050;2023-04-24T03:08:27;5.30;99.90
22081;DHT22;11207;59.512;18.050;2023-04-24T03:10:52;5.20;99.90
22081;DHT22;11207;59.512;18.050;2023-04-24T03:13:18;5.20;99.90
22081;DHT22;11207;59.512;18.050;2023-04-24T03:15:43;5.10;99.90
22081;DHT22;11207;59.512;18.050;2023-04-24T03:18:10;5.20;99.90
22081;DHT22;11207;59.512;18.050;2023-04-24T03:20:36;5.20;99.90
22081;DHT22;11207;59.512;18.050;2023-04-24T03:23:02;5.20;99.90
22081;DHT22;11207;59.512;18.050;2023-04-24T03:25:28;5.30;99.90
22081;DHT22;11207;59.512;18.050;2023-04-24T03:27:54;5.30;99.90
22081;DHT22;11207;59.512;18.050;2023-04-24T03:30:20;5.20;99.90
22081;DHT22;11207;59.512;18.050;2023-04-24T03:32:46;5.30;99.90
22081;DHT22;11207;59.512;18.050;2023-04-24T03:35:11;5.20;99.90
22081;DHT22;11207;59.512;18.050;2023-04-24T03:37:37;5.20;99.90
22081;DHT22;11207;59.512;18.050;2023-04-24T03:40:03;5.10;99.90
22081;DHT22;11207;59.512;18.050;2023-04-24T03:42:28;5.10;99.90
22081;DHT22;11207;59.512;18.050;2023-04-24T03:44:54;5.10;99.90
22081;DHT22;11207;59.512;18.050;2023-04-24T03:47:19;5.10;99.90
22081;DHT22;11207;59.512;18.050;2023-04-24T03:49:45;5.10;99.90
22081;DHT22;11207;59.512;18.050;2023-04-24T03:52:11;5.00;99.90
22081;DHT22;11207;59.512;18.050;2023-04-24T03:54:37;5.10;99.90
22081;DHT22;11207;59.512;18.050;2023-04-24T03:57:03;5.20;99.90
22081;DHT22;11207;59.512;18.050;2023-04-24T03:59:30;5.10;99.90
22081;DHT22;11207;59.512;18.050;2023-04-24T04:01:55;5.10;99.90
22081;DHT22;11207;59.512;18.050;2023-04-24T04:04:21;5.10;99.90
22081;DHT22;11207;59.512;18.050;2023-04-24T04:06:47;5.10;99.90
22081;DHT22;11207;59.512;18.050;2023-04-24T04:09:12;5.10;99.90
22081;DHT22;11207;59.512;18.050;2023-04-24T04:11:38;5.10;99.90
22081;DHT22;11207;59.512;18.050;2023-04-24T04:14:03;5.10;99.90
22081;DHT22;11207;59.512;18.050;2023-04-24T04:16:29;5.10;99.90
22081;DHT22;11207;59.512;18.050;2023-04-24T04:18:55;5.10;99.90
22081;DHT22;11207;59.512;18.050;2023-04-24T04:21:21;5.10;99.90
22081;DHT22;11207;59.512;18.050;2023-04-24T04:23:46;5.10;99.90
22081;DHT22;11207;59.512;18.050;2023-04-24T04:26:13;5.00;99.90
22081;DHT22;11207;59.512;18.050;2023-04-24T04:28:39;5.00;99.90
22081;DHT22;11207;59.512;18.050;2023-04-24T04:31:05;5.00;99.90
22081;DHT22;11207;59.512;18.050;2023-04-24T04:33:30;5.00;99.90
22081;DHT22;11207;59.512;18.050;2023-04-24T04:35:57;5.00;99.90
22081;DHT22;11207;59.512;18.050;2023-04-24T04:38:25;5.10;99.90
22081;DHT22;11207;59.512;18.050;2023-04-24T04:40:52;5.10;99.90
22081;DHT22;11207;59.512;18.050;2023-04-24T04:43:17;5.10;99.90
22081;DHT22;11207;59.512;18.050;2023-04-24T04:45:43;5.10;99.90
22081;DHT22;11207;59.512;18.050;2023-04-24T04:48:09;5.20;99.90
22081;DHT22;11207;59.512;18.050;2023-04-24T04:50:37;5.10;99.90
22081;DHT22;11207;59.512;18.050;2023-04-24T04:53:03;5.10;99.90
22081;DHT22;11207;59.512;18.050;2023-04-24T04:55:29;5.10;99.90
22081;DHT22;11207;59.512;18.050;2023-04-24T04:57:54;5.10;99.90
22081;DHT22;11207;59.512;18.050;2023-04-24T05:00:22;5.00;99.90
22081;DHT22;11207;59.512;18.050;2023-04-24T05:02:50;5.00;99.90
22081;DHT22;11207;59.512;18.050;2023-04-24T05:05:16;5.00;99.90
22081;DHT22;11207;59.512;18.050;2023-04-24T05:07:43;5.00;99.90
22081;DHT22;11207;59.512;18.050;2023-04-24T05:10:09;5.00;99.90
22081;DHT22;11207;59.512;18.050;2023-04-24T05:12:35;5.00;99.90
22081;DHT22;11207;59.512;18.050;2023-04-24T05:15:00;5.10;99.90
22081;DHT22;11207;59.512;18.050;2023-04-24T05:17:26;5.00;99.90
22081;DHT22;11207;59.512;18.050;2023-04-24T05:19:52;5.10;99.90
22081;DHT22;11207;59.512;18.050;2023-04-24T05:22:17;5.10;99.90
22081;DHT22;11207;59.512;18.050;2023-04-24T05:24:46;5.10;99.90
22081;DHT22;11207;59.512;18.050;2023-04-24T05:27:12;5.20;99.90
22081;DHT22;11207;59.512;18.050;2023-04-24T05:29:41;5.20;99.90
22081;DHT22;11207;59.512;18.050;2023-04-24T05:32:06;5.20;99.90
22081;DHT22;11207;59.512;18.050;2023-04-24T05:34:34;5.20;99.90
22081;DHT22;11207;59.512;18.050;2023-04-24T05:37:00;5.10;99.90
22081;DHT22;11207;59.512;18.050;2023-04-24T05:39:26;5.10;99.90
22081;DHT22;11207;59.512;18.050;2023-04-24T05:41:52;5.10;99.90
22081;DHT22;11207;59.512;18.050;2023-04-24T05:44:18;5.20;99.90
22081;DHT22;11207;59.512;18.050;2023-04-24T05:46:43;5.20;99.90
22081;DHT22;11207;59.512;18.050;2023-04-24T05:49:09;5.20;99.90
22081;DHT22;11207;59.512;18.050;2023-04-24T05:51:34;5.20;99.90
22081;DHT22;11207;59.512;18.050;2023-04-24T05:54:00;5.30;99.90
22081;DHT22;11207;59.512;18.050;2023-04-24T05:56:27;5.30;99.90
22081;DHT22;11207;59.512;18.050;2023-04-24T05:58:52;5.30;99.90
22081;DHT22;11207;59.512;18.050;2023-04-24T06:01:18;5.30;99.90
22081;DHT22;11207;59.512;18.050;2023-04-24T06:03:45;5.30;99.90
22081;DHT22;11207;59.512;18.050;2023-04-24T06:06:10;5.20;99.90
22081;DHT22;11207;59.512;18.050;2023-04-24T06:08:36;5.20;99.90
22081;DHT22;11207;59.512;18.050;2023-04-24T06:11:01;5.10;99.90
22081;DHT22;11207;59.512;18.050;2023-04-24T06:13:27;5.20;99.90
22081;DHT22;11207;59.512;18.050;2023-04-24T06:15:53;5.20;99.90
22081;DHT22;11207;59.512;18.050;2023-04-24T06:18:19;5.20;99.90
22081;DHT22;11207;59.512;18.050;2023-04-24T06:20:46;5.20;99.90
22081;DHT22;11207;59.512;18.050;2023-04-24T06:23:12;5.30;99.90
22081;DHT22;11207;59.512;18.050;2023-04-24T06:25:38;5.30;99.90
22081;DHT22;11207;59.512;18.050;2023-04-24T06:28:04;5.20;99.90
22081;DHT22;11207;59.512;18.050;2023-04-24T06:30:30;5.20;99.90
22081;DHT22;11207;59.512;18.050;2023-04-24T06:32:56;5.20;99.90
22081;DHT22;11207;59.512;18.050;2023-04-24T06:35:21;5.20;99.90
22081;DHT22;11207;59.512;18.050;2023-04-24T06:37:47;5.20;99.90
22081;DHT22;11207;59.512;18.050;2023-04-24T06:40:13;5.30;99.90
22081;DHT22;11207;59.512;18.050;2023-04-24T06:42:38;5.30;99.90
22081;DHT22;11207;59.512;18.050;2023-04-24T06:45:05;5.40;99.90
22081;DHT22;11207;59.512;18.050;2023-04-24T06:47:31;5.40;99.90
22081;DHT22;11207;59.512;18.050;2023-04-24T06:49:56;5.40;99.90
22081;DHT22;11207;59.512;18.050;2023-04-24T06:52:22;5.60;99.90
22081;DHT22;11207;59.512;18.050;2023-04-24T06:54:48;5.60;99.90
22081;DHT22;11207;59.512;18.050;2023-04-24T06:57:13;5.60;99.90
22081;DHT22;11207;59.512;18.050;2023-04-24T06:59:39;5.50;99.90
22081;DHT22;11207;59.512;18.050;2023-04-24T07:02:05;5.50;99.90
22081;DHT22;11207;59.512;18.050;2023-04-24T07:04:31;5.50;99.90
22081;DHT22;11207;59.512;18.050;2023-04-24T07:06:56;5.60;99.90
22081;DHT22;11207;59.512;18.050;2023-04-24T07:09:24;5.50;99.90
22081;DHT22;11207;59.512;18.050;2023-04-24T07:11:51;5.50;99.90
22081;DHT22;11207;59.512;18.050;2023-04-24T07:14:17;5.50;99.90
22081;DHT22;11207;59.512;18.050;2023-04-24T07:16:43;5.50;99.90
22081;DHT22;11207;59.512;18.050;2023-04-24T07:19:09;5.40;99.90
22081;DHT22;11207;59.512;18.050;2023-04-24T07:21:34;5.50;99.90
22081;DHT22;11207;59.512;18.050;2023-04-24T07:24:02;5.60;99.90
22081;DHT22;11207;59.512;18.050;2023-04-24T07:26:29;5.50;99.90
22081;DHT22;11207;59.512;18.050;2023-04-24T07:28:55;5.60;99.90
22081;DHT22;11207;59.512;18.050;2023-04-24T07:31:21;5.60;99.90
22081;DHT22;11207;59.512;18.050;2023-04-24T07:33:47;5.50;99.90
22081;DHT22;11207;59.512;18.050;2023-04-24T07:36:13;5.60;99.90
22081;DHT22;11207;59.512;18.050;2023-04-24T07:38:46;5.50;99.90
22081;DHT22;11207;59.512;18.050;2023-04-24T07:41:13;5.50;99.90
22081;DHT22;11207;59.512;18.050;2023-04-24T07:43:39;5.50;99.90
22081;DHT22;11207;59.512;18.050;2023-04-24T07:46:06;5.40;99.90
22081;DHT22;11207;59.512;18.050;2023-04-24T07:48:31;5.50;99.90
22081;DHT22;11207;59.512;18.050;2023-04-24T07:50:57;5.40;99.90
22081;DHT22;11207;59.512;18.050;2023-04-24T07:53:23;5.50;99.90
22081;DHT22;11207;59.512;18.050;2023-04-24T07:55:48;5.50;99.90
22081;DHT22;11207;59.512;18.050;2023-04-24T07:58:14;5.60;99.90
22081;DHT22;11207;59.512;18.050;2023-04-24T08:00:40;5.70;99.90
22081;DHT22;11207;59.512;18.050;2023-04-24T08:03:06;5.70;99.90
22081;DHT22;11207;59.512;18.050;2023-04-24T08:05:31;5.70;99.90
22081;DHT22;11207;59.512;18.050;2023-04-24T08:07:57;5.70;99.90
22081;DHT22;11207;59.512;18.050;2023-04-24T08:10:24;5.60;99.90
22081;DHT22;11207;59.512;18.050;2023-04-24T08:12:50;5.70;99.90
22081;DHT22;11207;59.512;18.050;2023-04-24T08:15:16;5.70;99.90
22081;DHT22;11207;59.512;18.050;2023-04-24T08:17:42;5.80;99.90
22081;DHT22;11207;59.512;18.050;2023-04-24T08:20:10;5.80;99.90
22081;DHT22;11207;59.512;18.050;2023-04-24T08:22:42;5.90;99.90
22081;DHT22;11207;59.512;18.050;2023-04-24T08:25:09;5.90;99.90
22081;DHT22;11207;59.512;18.050;2023-04-24T08:27:35;5.90;99.90
22081;DHT22;11207;59.512;18.050;2023-04-24T08:30:05;5.90;99.90
22081;DHT22;11207;59.512;18.050;2023-04-24T08:32:31;6.00;99.90
22081;DHT22;11207;59.512;18.050;2023-04-24T08:34:57;6.10;99.90
22081;DHT22;11207;59.512;18.050;2023-04-24T08:37:23;6.10;99.90
22081;DHT22;11207;59.512;18.050;2023-04-24T08:39:49;6.20;99.90
22081;DHT22;11207;59.512;18.050;2023-04-24T08:42:16;6.10;99.90
22081;DHT22;11207;59.512;18.050;2023-04-24T08:44:43;6.20;99.90
22081;DHT22;11207;59.512;18.050;2023-04-24T08:47:10;6.20;99.90
22081;DHT22;11207;59.512;18.050;2023-04-24T08:49:37;6.20;99.90
22081;DHT22;11207;59.512;18.050;2023-04-24T08:52:04;6.20;99.90
22081;DHT22;11207;59.512;18.050;2023-04-24T08:54:31;6.30;99.90
22081;DHT22;11207;59.512;18.050;2023-04-24T08:57:01;6.20;99.90
22081;DHT22;11207;59.512;18.050;2023-04-24T08:59:28;6.30;99.90
22081;DHT22;11207;59.512;18.050;2023-04-24T09:01:55;6.40;99.90
22081;DHT22;11207;59.512;18.050;2023-04-24T09:04:22;6.70;99.90
22081;DHT22;11207;59.512;18.050;2023-04-24T09:06:57;6.40;99.90
22081;DHT22;11207;59.512;18.050;2023-04-24T09:09:23;6.50;99.90
22081;DHT22;11207;59.512;18.050;2023-04-24T09:11:50;6.40;99.90
22081;DHT22;11207;59.512;18.050;2023-04-24T09:14:19;6.60;99.90
22081;DHT22;11207;59.512;18.050;2023-04-24T09:16:45;6.50;99.90
22081;DHT22;11207;59.512;18.050;2023-04-24T09:19:11;6.30;99.90
22081;DHT22;11207;59.512;18.050;2023-04-24T09:21:36;6.40;99.90
22081;DHT22;11207;59.512;18.050;2023-04-24T09:24:05;6.50;99.90
22081;DHT22;11207;59.512;18.050;2023-04-24T09:26:31;6.60;99.90
22081;DHT22;11207;59.512;18.050;2023-04-24T09:28:58;6.60;99.90
22081;DHT22;11207;59.512;18.050;2023-04-24T09:31:27;6.60;99.90
22081;DHT22;11207;59.512;18.050;2023-04-24T09:34:04;6.60;99.90
22081;DHT22;11207;59.512;18.050;2023-04-24T09:36:35;6.70;99.90
22081;DHT22;11207;59.512;18.050;2023-04-24T09:39:12;6.70;99.90
22081;DHT22;11207;59.512;18.050;2023-04-24T09:44:18;6.70;99.90
22081;DHT22;11207;59.512;18.050;2023-04-24T09:46:51;6.70;99.90
22081;DHT22;11207;59.512;18.050;2023-04-24T09:49:24;6.60;99.90
22081;DHT22;11207;59.512;18.050;2023-04-24T09:51:50;6.90;99.90
22081;DHT22;11207;59.512;18.050;2023-04-24T09:54:21;7.00;99.90
22081;DHT22;11207;59.512;18.050;2023-04-24T09:56:50;6.90;99.90
22081;DHT22;11207;59.512;18.050;2023-04-24T09:59:19;7.10;99.90
22081;DHT22;11207;59.512;18.050;2023-04-24T10:01:45;7.00;99.90
22081;DHT22;11207;59.512;18.050;2023-04-24T10:04:26;7.10;99.90
22081;DHT22;11207;59.512;18.050;2023-04-24T10:06:55;7.10;99.90
22081;DHT22;11207;59.512;18.050;2023-04-24T10:09:23;7.10;99.90
22081;DHT22;11207;59.512;18.050;2023-04-24T10:11:51;7.20;99.90
22081;DHT22;11207;59.512;18.050;2023-04-24T10:14:19;7.20;99.90
22081;DHT22;11207;59.512;18.050;2023-04-24T10:16:46;7.20;99.90
22081;DHT22;11207;59.512;18.050;2023-04-24T10:19:15;7.00;99.90
22081;DHT22;11207;59.512;18.050;2023-04-24T10:21:43;7.10;99.90
22081;DHT22;11207;59.512;18.050;2023-04-24T10:24:13;7.10;99.90
22081;DHT22;11207;59.512;18.050;2023-04-24T10:26:40;7.20;99.90
22081;DHT22;11207;59.512;18.050;2023-04-24T10:29:06;7.20;99.90
22081;DHT22;11207;59.512;18.050;2023-04-24T10:31:36;7.30;99.90
22081;DHT22;11207;59.512;18.050;2023-04-24T10:34:02;7.30;99.90
22081;DHT22;11207;59.512;18.050;2023-04-24T10:36:30;7.30;99.90
22081;DHT22;11207;59.512;18.050;2023-04-24T10:39:00;7.40;99.90
22081;DHT22;11207;59.512;18.050;2023-04-24T10:41:26;7.30;99.90
22081;DHT22;11207;59.512;18.050;2023-04-24T10:44:09;7.30;99.90
22081;DHT22;11207;59.512;18.050;2023-04-24T10:46:35;7.30;99.90
22081;DHT22;11207;59.512;18.050;2023-04-24T10:49:06;7.30;99.90
22081;DHT22;11207;59.512;18.050;2023-04-24T10:52:03;7.20;99.90
22081;DHT22;11207;59.512;18.050;2023-04-24T10:54:46;7.20;99.90
22081;DHT22;11207;59.512;18.050;2023-04-24T11:02:36;7.30;99.90
22081;DHT22;11207;59.512;18.050;2023-04-24T11:05:03;7.30;99.90
22081;DHT22;11207;59.512;18.050;2023-04-24T11:07:29;7.40;99.90
22081;DHT22;11207;59.512;18.050;2023-04-24T11:09:58;7.50;99.90
22081;DHT22;11207;59.512;18.050;2023-04-24T11:12:26;7.40;99.90
22081;DHT22;11207;59.512;18.050;2023-04-24T11:17:35;7.50;99.90
22081;DHT22;11207;59.512;18.050;2023-04-24T11:20:10;7.50;99.90
22081;DHT22;11207;59.512;18.050;2023-04-24T11:22:38;7.50;99.90
22081;DHT22;11207;59.512;18.050;2023-04-24T11:25:06;7.40;99.90
22081;DHT22;11207;59.512;18.050;2023-04-24T11:27:42;7.40;99.90
22081;DHT22;11207;59.512;18.050;2023-04-24T11:30:12;7.30;99.90
22081;DHT22;11207;59.512;18.050;2023-04-24T11:32:42;7.40;99.90
22081;DHT22;11207;59.512;18.050;2023-04-24T11:35:18;7.40;99.90
22081;DHT22;11207;59.512;18.050;2023-04-24T11:37:46;7.60;99.90
22081;DHT22;11207;59.512;18.050;2023-04-24T11:40:17;7.70;99.90
22081;DHT22;11207;59.512;18.050;2023-04-24T11:42:47;7.80;99.90
22081;DHT22;11207;59.512;18.050;2023-04-24T11:45:22;7.90;99.90
22081;DHT22;11207;59.512;18.050;2023-04-24T11:47:51;7.90;99.90
22081;DHT22;11207;59.512;18.050;2023-04-24T11:50:18;7.90;99.90
22081;DHT22;11207;59.512;18.050;2023-04-24T11:52:46;7.90;99.90
22081;DHT22;11207;59.512;18.050;2023-04-24T11:57:54;7.90;99.90
22081;DHT22;11207;59.512;18.050;2023-04-24T12:00:32;7.80;99.90
22081;DHT22;11207;59.512;18.050;2023-04-24T12:03:06;7.60;99.90
22081;DHT22;11207;59.512;18.050;2023-04-24T12:05:34;7.80;99.90
22081;DHT22;11207;59.512;18.050;2023-04-24T12:08:00;7.70;99.90
22081;DHT22;11207;59.512;18.050;2023-04-24T12:10:28;7.80;99.90
22081;DHT22;11207;59.512;18.050;2023-04-24T12:12:56;7.60;99.90
22081;DHT22;11207;59.512;18.050;2023-04-24T12:15:22;7.50;99.90
22081;DHT22;11207;59.512;18.050;2023-04-24T12:17:48;7.60;99.90
22081;DHT22;11207;59.512;18.050;2023-04-24T12:20:16;7.40;99.90
22081;DHT22;11207;59.512;18.050;2023-04-24T12:25:14;7.30;99.90
22081;DHT22;11207;59.512;18.050;2023-04-24T12:27:40;7.20;99.90
22081;DHT22;11207;59.512;18.050;2023-04-24T12:30:10;7.10;99.90
22081;DHT22;11207;59.512;18.050;2023-04-24T12:32:41;7.10;99.90
22081;DHT22;11207;59.512;18.050;2023-04-24T12:35:07;7.10;99.90
22081;DHT22;11207;59.512;18.050;2023-04-24T12:37:33;7.10;99.90
22081;DHT22;11207;59.512;18.050;2023-04-24T12:40:11;7.20;99.90
22081;DHT22;11207;59.512;18.050;2023-04-24T12:42:49;7.20;99.90
22081;DHT22;11207;59.512;18.050;2023-04-24T12:45:19;7.30;99.90
22081;DHT22;11207;59.512;18.050;2023-04-24T12:47:45;7.40;99.90
22081;DHT22;11207;59.512;18.050;2023-04-24T12:50:31;7.50;99.90
22081;DHT22;11207;59.512;18.050;2023-04-24T12:52:57;7.50;99.90
22081;DHT22;11207;59.512;18.050;2023-04-24T12:55:22;7.50;99.90
22081;DHT22;11207;59.512;18.050;2023-04-24T12:57:48;7.30;99.90
22081;DHT22;11207;59.512;18.050;2023-04-24T13:00:14;7.30;99.90
22081;DHT22;11207;59.512;18.050;2023-04-24T13:02:42;7.40;99.90
22081;DHT22;11207;59.512;18.050;2023-04-24T13:05:08;7.60;99.90
22081;DHT22;11207;59.512;18.050;2023-04-24T13:07:34;7.20;99.90
22081;DHT22;11207;59.512;18.050;2023-04-24T13:10:00;7.30;99.90
22081;DHT22;11207;59.512;18.050;2023-04-24T13:12:26;7.20;99.90
22081;DHT22;11207;59.512;18.050;2023-04-24T13:14:52;7.10;99.90
22081;DHT22;11207;59.512;18.050;2023-04-24T13:17:18;7.30;99.90
22081;DHT22;11207;59.512;18.050;2023-04-24T13:19:44;7.30;99.90
22081;DHT22;11207;59.512;18.050;2023-04-24T13:22:11;7.10;99.90
22081;DHT22;11207;59.512;18.050;2023-04-24T13:24:38;7.20;99.90
22081;DHT22;11207;59.512;18.050;2023-04-24T13:27:05;7.00;99.90
22081;DHT22;11207;59.512;18.050;2023-04-24T13:29:30;7.00;99.90
22081;DHT22;11207;59.512;18.050;2023-04-24T13:31:56;7.10;99.90
22081;DHT22;11207;59.512;18.050;2023-04-24T13:34:23;7.00;99.90
22081;DHT22;11207;59.512;18.050;2023-04-24T13:36:51;7.10;99.90
22081;DHT22;11207;59.512;18.050;2023-04-24T13:39:17;7.20;99.90
22081;DHT22;11207;59.512;18.050;2023-04-24T13:41:42;7.20;99.90
22081;DHT22;11207;59.512;18.050;2023-04-24T13:44:08;7.20;99.90
22081;DHT22;11207;59.512;18.050;2023-04-24T13:46:34;7.30;99.90
22081;DHT22;11207;59.512;18.050;2023-04-24T13:49:01;7.20;99.90
22081;DHT22;11207;59.512;18.050;2023-04-24T13:51:27;7.30;99.90
22081;DHT22;11207;59.512;18.050;2023-04-24T13:53:53;7.20;99.90
22081;DHT22;11207;59.512;18.050;2023-04-24T13:56:19;7.20;99.90
22081;DHT22;11207;59.512;18.050;2023-04-24T13:58:45;7.10;99.90
22081;DHT22;11207;59.512;18.050;2023-04-24T14:01:11;7.10;99.90
22081;DHT22;11207;59.512;18.050;2023-04-24T14:03:38;7.20;99.90
22081;DHT22;11207;59.512;18.050;2023-04-24T14:06:05;7.10;99.90
22081;DHT22;11207;59.512;18.050;2023-04-24T14:08:31;7.00;99.90
22081;DHT22;11207;59.512;18.050;2023-04-24T14:10:57;7.00;99.90
22081;DHT22;11207;59.512;18.050;2023-04-24T14:13:23;6.90;99.90
22081;DHT22;11207;59.512;18.050;2023-04-24T14:15:49;6.80;99.90
22081;DHT22;11207;59.512;18.050;2023-04-24T14:18:14;6.70;99.90
22081;DHT22;11207;59.512;18.050;2023-04-24T14:20:40;6.80;99.90
22081;DHT22;11207;59.512;18.050;2023-04-24T14:23:07;6.70;99.90
22081;DHT22;11207;59.512;18.050;2023-04-24T14:25:33;6.80;99.90
22081;DHT22;11207;59.512;18.050;2023-04-24T14:27:59;6.70;99.90
22081;DHT22;11207;59.512;18.050;2023-04-24T14:30:25;6.70;99.90
22081;DHT22;11207;59.512;18.050;2023-04-24T14:32:50;6.60;99.90
22081;DHT22;11207;59.512;18.050;2023-04-24T14:35:16;6.60;99.90
22081;DHT22;11207;59.512;18.050;2023-04-24T14:37:42;6.50;99.90
22081;DHT22;11207;59.512;18.050;2023-04-24T14:40:08;6.40;99.90
22081;DHT22;11207;59.512;18.050;2023-04-24T14:42:34;6.50;99.90
22081;DHT22;11207;59.512;18.050;2023-04-24T14:45:00;6.60;99.90
22081;DHT22;11207;59.512;18.050;2023-04-24T14:47:26;6.50;99.90
22081;DHT22;11207;59.512;18.050;2023-04-24T14:49:52;6.50;99.90
22081;DHT22;11207;59.512;18.050;2023-04-24T14:52:18;6.50;99.90
22081;DHT22;11207;59.512;18.050;2023-04-24T14:54:44;6.60;99.90
22081;DHT22;11207;59.512;18.050;2023-04-24T14:57:10;6.60;99.90
22081;DHT22;11207;59.512;18.050;2023-04-24T14:59:36;6.60;99.90
22081;DHT22;11207;59.512;18.050;2023-04-24T15:02:02;6.60;99.90
22081;DHT22;11207;59.512;18.050;2023-04-24T15:04:28;6.60;99.90
22081;DHT22;11207;59.512;18.050;2023-04-24T15:06:54;6.40;99.90
22081;DHT22;11207;59.512;18.050;2023-04-24T15:09:24;6.50;99.90
22081;DHT22;11207;59.512;18.050;2023-04-24T15:11:51;6.40;99.90
22081;DHT22;11207;59.512;18.050;2023-04-24T15:14:18;6.30;99.90
22081;DHT22;11207;59.512;18.050;2023-04-24T15:16:50;6.20;99.90
22081;DHT22;11207;59.512;18.050;2023-04-24T15:19:16;6.20;99.90
22081;DHT22;11207;59.512;18.050;2023-04-24T15:21:42;6.20;99.90
22081;DHT22;11207;59.512;18.050;2023-04-24T15:24:10;6.10;99.90
22081;DHT22;11207;59.512;18.050;2023-04-24T15:26:36;6.10;99.90
22081;DHT22;11207;59.512;18.050;2023-04-24T15:29:02;6.10;99.90
22081;DHT22;11207;59.512;18.050;2023-04-24T15:31:27;6.10;99.90
22081;DHT22;11207;59.512;18.050;2023-04-24T15:33:53;6.10;99.90
22081;DHT22;11207;59.512;18.050;2023-04-24T15:36:19;6.20;99.90
22081;DHT22;11207;59.512;18.050;2023-04-24T15:38:46;6.10;99.90
22081;DHT22;11207;59.512;18.050;2023-04-24T15:41:12;6.10;99.90
22081;DHT22;11207;59.512;18.050;2023-04-24T15:43:38;6.20;99.90